sensor_id;sensor_type;location;lat;lon;timestamp;P1;durP1;ratioP1;P2;durP2;ratioP2
15788;SDS011;59075;50.670;6.474;2022-10-03T05:00:14;662.47;;;609.37;;
15788;SDS011;59075;50.670;6.474;2022-10-03T05:02:49;662.63;;;609.57;;
15788;SDS011;59075;50.670;6.474;2022-10-03T05:05:25;664.23;;;610.77;;
15788;SDS011;59075;50.670;6.474;2022-10-03T05:08:05;647.63;;;594.80;;
15788;SDS011;59075;50.670;6.474;2022-10-03T05:10:46;648.03;;;595.17;;
15788;SDS011;59075;50.670;6.474;2022-10-03T05:13:31;656.93;;;604.00;;
15788;SDS011;59075;50.670;6.474;2022-10-03T05:16:15;665.40;;;611.37;;
15788;SDS011;59075;50.670;6.474;2022-10-03T05:18:48;661.47;;;608.33;;
15788;SDS011;59075;50.670;6.474;2022-10-03T05:21:23;667.73;;;614.57;;
15788;SDS011;59075;50.670;6.474;2022-10-03T05:24:00;656.80;;;603.97;;
15788;SDS011;59075;50.670;6.474;2022-10-03T05:26:40;646.77;;;594.00;;
15788;SDS011;59075;50.670;6.474;2022-10-03T05:29:14;650.67;;;597.90;;
15788;SDS011;59075;50.670;6.474;2022-10-03T05:31:47;658.73;;;605.67;;
15788;SDS011;59075;50.670;6.474;2022-10-03T05:34:22;650.67;;;597.97;;
15788;SDS011;59075;50.670;6.474;2022-10-03T05:37:03;659.20;;;606.20;;
15788;SDS011;59075;50.670;6.474;2022-10-03T05:39:50;664.77;;;611.63;;
15788;SDS011;59075;50.670;6.474;2022-10-03T05:42:34;657.43;;;604.53;;
15788;SDS011;59075;50.670;6.474;2022-10-03T05:45:18;653.10;;;600.27;;
15788;SDS011;59075;50.670;6.474;2022-10-03T05:47:57;652.97;;;600.07;;
15788;SDS011;59075;50.670;6.474;2022-10-03T05:57:01;645.67;;;592.93;;
15788;SDS011;59075;50.670;6.474;2022-10-03T05:59:57;645.57;;;592.93;;
15788;SDS011;59075;50.670;6.474;2022-10-03T06:02:37;655.63;;;602.83;;
15788;SDS011;59075;50.670;6.474;2022-10-03T06:05:13;664.63;;;611.60;;
15788;SDS011;59075;50.670;6.474;2022-10-03T06:07:51;655.67;;;602.60;;
15788;SDS011;59075;50.670;6.474;2022-10-03T06:10:38;647.93;;;595.23;;
15788;SDS011;59075;50.670;6.474;2022-10-03T06:13:12;650.53;;;597.87;;
15788;SDS011;59075;50.670;6.474;2022-10-03T06:15:58;652.10;;;599.37;;
15788;SDS011;59075;50.670;6.474;2022-10-03T06:18:42;651.20;;;598.53;;
15788;SDS011;59075;50.670;6.474;2022-10-03T06:21:55;651.13;;;598.47;;
15788;SDS011;59075;50.670;6.474;2022-10-03T06:24:51;642.47;;;589.77;;
15788;SDS011;59075;50.670;6.474;2022-10-03T06:27:58;651.23;;;598.60;;
15788;SDS011;59075;50.670;6.474;2022-10-03T06:30:54;643.87;;;591.33;;
15788;SDS011;59075;50.670;6.474;2022-10-03T06:34:01;656.97;;;603.97;;
15788;SDS011;59075;50.670;6.474;2022-10-03T06:36:48;654.20;;;601.50;;
15788;SDS011;59075;50.670;6.474;2022-10-03T06:42:55;642.50;;;589.93;;
15788;SDS011;59075;50.670;6.474;2022-10-03T06:45:41;639.67;;;587.20;;
15788;SDS011;59075;50.670;6.474;2022-10-03T06:48:28;653.53;;;600.73;;
15788;SDS011;59075;50.670;6.474;2022-10-03T06:54:30;656.17;;;603.03;;
15788;SDS011;59075;50.670;6.474;2022-10-03T06:57:21;646.13;;;593.53;;
15788;SDS011;59075;50.670;6.474;2022-10-03T07:00:07;648.43;;;595.67;;
15788;SDS011;59075;50.670;6.474;2022-10-03T07:12:12;669.53;;;616.23;;
15788;SDS011;59075;50.670;6.474;2022-10-03T07:15:05;649.30;;;596.70;;
15788;SDS011;59075;50.670;6.474;2022-10-03T07:17:52;660.27;;;607.10;;
15788;SDS011;59075;50.670;6.474;2022-10-03T07:20:25;663.87;;;610.50;;
15788;SDS011;59075;50.670;6.474;2022-10-03T07:26:30;675.77;;;621.50;;
15788;SDS011;59075;50.670;6.474;2022-10-03T07:32:46;658.97;;;605.87;;
15788;SDS011;59075;50.670;6.474;2022-10-03T07:35:40;653.03;;;600.27;;
15788;SDS011;59075;50.670;6.474;2022-10-03T07:38:35;651.20;;;598.53;;
15788;SDS011;59075;50.670;6.474;2022-10-03T07:41:40;646.80;;;594.03;;
15788;SDS011;59075;50.670;6.474;2022-10-03T07:47:56;660.10;;;606.90;;
15788;SDS011;59075;50.670;6.474;2022-10-03T07:50:56;654.43;;;601.40;;
15788;SDS011;59075;50.670;6.474;2022-10-03T07:56:32;664.20;;;611.03;;
15788;SDS011;59075;50.670;6.474;2022-10-03T07:59:35;663.60;;;610.47;;
15788;SDS011;59075;50.670;6.474;2022-10-03T08:05:33;656.47;;;603.53;;
15788;SDS011;59075;50.670;6.474;2022-10-03T08:08:25;662.87;;;609.67;;
15788;SDS011;59075;50.670;6.474;2022-10-03T08:11:30;669.40;;;616.23;;
15788;SDS011;59075;50.670;6.474;2022-10-03T08:14:15;676.23;;;622.63;;
15788;SDS011;59075;50.670;6.474;2022-10-03T08:17:00;681.20;;;627.47;;
15788;SDS011;59075;50.670;6.474;2022-10-03T08:20:00;669.00;;;615.70;;
15788;SDS011;59075;50.670;6.474;2022-10-03T08:22:50;657.37;;;604.47;;
15788;SDS011;59075;50.670;6.474;2022-10-03T08:25:29;673.23;;;619.77;;
15788;SDS011;59075;50.670;6.474;2022-10-03T08:28:22;680.47;;;626.77;;
15788;SDS011;59075;50.670;6.474;2022-10-03T08:31:12;670.67;;;617.10;;
15788;SDS011;59075;50.670;6.474;2022-10-03T08:33:59;670.93;;;617.57;;
15788;SDS011;59075;50.670;6.474;2022-10-03T08:36:48;685.17;;;631.27;;
15788;SDS011;59075;50.670;6.474;2022-10-03T08:39:46;664.00;;;610.40;;
15788;SDS011;59075;50.670;6.474;2022-10-03T08:45:41;676.03;;;622.33;;
15788;SDS011;59075;50.670;6.474;2022-10-03T08:54:24;669.07;;;615.40;;
15788;SDS011;59075;50.670;6.474;2022-10-03T08:57:16;670.40;;;616.77;;
15788;SDS011;59075;50.670;6.474;2022-10-03T09:02:49;677.10;;;623.17;;
15788;SDS011;59075;50.670;6.474;2022-10-03T09:05:53;666.20;;;612.63;;
15788;SDS011;59075;50.670;6.474;2022-10-03T09:09:00;671.23;;;617.60;;
15788;SDS011;59075;50.670;6.474;2022-10-03T09:14:50;669.00;;;615.30;;
15788;SDS011;59075;50.670;6.474;2022-10-03T09:20:51;669.27;;;615.63;;
15788;SDS011;59075;50.670;6.474;2022-10-03T09:23:45;668.57;;;615.10;;
15788;SDS011;59075;50.670;6.474;2022-10-03T09:26:32;680.80;;;626.13;;
15788;SDS011;59075;50.670;6.474;2022-10-03T09:32:30;664.63;;;610.97;;
15788;SDS011;59075;50.670;6.474;2022-10-03T09:35:21;670.10;;;616.37;;
15788;SDS011;59075;50.670;6.474;2022-10-03T09:38:14;685.37;;;631.03;;
15788;SDS011;59075;50.670;6.474;2022-10-03T09:41:14;671.47;;;617.40;;
15788;SDS011;59075;50.670;6.474;2022-10-03T09:43:57;681.50;;;627.43;;
15788;SDS011;59075;50.670;6.474;2022-10-03T09:46:54;685.70;;;631.67;;
15788;SDS011;59075;50.670;6.474;2022-10-03T09:53:00;687.67;;;633.37;;
15788;SDS011;59075;50.670;6.474;2022-10-03T09:55:52;683.37;;;628.93;;
15788;SDS011;59075;50.670;6.474;2022-10-03T09:58:44;678.50;;;624.43;;
15788;SDS011;59075;50.670;6.474;2022-10-03T10:01:29;689.67;;;635.40;;
15788;SDS011;59075;50.670;6.474;2022-10-03T10:04:18;692.97;;;638.83;;
15788;SDS011;59075;50.670;6.474;2022-10-03T10:15:47;692.60;;;638.17;;
15788;SDS011;59075;50.670;6.474;2022-10-03T10:18:57;692.33;;;638.03;;
15788;SDS011;59075;50.670;6.474;2022-10-03T10:21:59;691.93;;;637.70;;
15788;SDS011;59075;50.670;6.474;2022-10-03T10:25:00;674.70;;;621.33;;
15788;SDS011;59075;50.670;6.474;2022-10-03T10:28:02;681.87;;;627.97;;
15788;SDS011;59075;50.670;6.474;2022-10-03T10:40:29;683.97;;;629.87;;
15788;SDS011;59075;50.670;6.474;2022-10-03T10:52:32;690.30;;;636.03;;
15788;SDS011;59075;50.670;6.474;2022-10-03T10:55:38;699.10;;;644.70;;
15788;SDS011;59075;50.670;6.474;2022-10-03T10:58:31;674.27;;;620.37;;
15788;SDS011;59075;50.670;6.474;2022-10-03T11:01:43;701.57;;;646.73;;
15788;SDS011;59075;50.670;6.474;2022-10-03T11:13:57;707.00;;;652.50;;
15788;SDS011;59075;50.670;6.474;2022-10-03T11:20:07;689.43;;;635.53;;
15788;SDS011;59075;50.670;6.474;2022-10-03T11:26:12;704.40;;;649.93;;
15788;SDS011;59075;50.670;6.474;2022-10-03T11:32:26;701.73;;;647.43;;
15788;SDS011;59075;50.670;6.474;2022-10-03T11:38:32;704.73;;;650.03;;
15788;SDS011;59075;50.670;6.474;2022-10-03T11:41:04;695.50;;;641.50;;
15788;SDS011;59075;50.670;6.474;2022-10-03T11:43:48;705.23;;;650.50;;
15788;SDS011;59075;50.670;6.474;2022-10-03T11:46:50;706.43;;;651.87;;
15788;SDS011;59075;50.670;6.474;2022-10-03T11:49:35;708.23;;;653.63;;
15788;SDS011;59075;50.670;6.474;2022-10-03T11:52:28;698.03;;;643.83;;
15788;SDS011;59075;50.670;6.474;2022-10-03T11:55:02;705.27;;;650.43;;
15788;SDS011;59075;50.670;6.474;2022-10-03T11:57:44;707.93;;;653.40;;
15788;SDS011;59075;50.670;6.474;2022-10-03T12:00:19;693.33;;;639.20;;
15788;SDS011;59075;50.670;6.474;2022-10-03T12:02:54;698.20;;;643.87;;
15788;SDS011;59075;50.670;6.474;2022-10-03T12:05:45;710.10;;;655.40;;
15788;SDS011;59075;50.670;6.474;2022-10-03T12:08:21;701.10;;;646.77;;
15788;SDS011;59075;50.670;6.474;2022-10-03T12:11:15;704.70;;;650.17;;
15788;SDS011;59075;50.670;6.474;2022-10-03T12:13:45;715.43;;;660.77;;
15788;SDS011;59075;50.670;6.474;2022-10-03T12:16:21;701.13;;;646.10;;
15788;SDS011;59075;50.670;6.474;2022-10-03T12:18:52;709.83;;;655.23;;
15788;SDS011;59075;50.670;6.474;2022-10-03T12:21:29;707.60;;;653.13;;
15788;SDS011;59075;50.670;6.474;2022-10-03T12:24:19;702.33;;;647.97;;
15788;SDS011;59075;50.670;6.474;2022-10-03T12:26:52;701.47;;;647.20;;
15788;SDS011;59075;50.670;6.474;2022-10-03T12:29:23;720.73;;;665.63;;
15788;SDS011;59075;50.670;6.474;2022-10-03T12:31:58;705.63;;;650.80;;
15788;SDS011;59075;50.670;6.474;2022-10-03T12:34:38;719.33;;;664.30;;
15788;SDS011;59075;50.670;6.474;2022-10-03T12:37:13;716.97;;;662.17;;
15788;SDS011;59075;50.670;6.474;2022-10-03T12:40:01;709.77;;;655.10;;
15788;SDS011;59075;50.670;6.474;2022-10-03T12:42:35;717.00;;;661.93;;
15788;SDS011;59075;50.670;6.474;2022-10-03T12:45:11;713.90;;;659.17;;
15788;SDS011;59075;50.670;6.474;2022-10-03T12:50:38;715.20;;;660.47;;
15788;SDS011;59075;50.670;6.474;2022-10-03T12:56:06;715.53;;;660.47;;
15788;SDS011;59075;50.670;6.474;2022-10-03T12:58:44;714.70;;;660.17;;
15788;SDS011;59075;50.670;6.474;2022-10-03T13:01:23;720.80;;;665.90;;
15788;SDS011;59075;50.670;6.474;2022-10-03T13:03:55;708.97;;;654.47;;
15788;SDS011;59075;50.670;6.474;2022-10-03T13:06:37;703.10;;;648.57;;
15788;SDS011;59075;50.670;6.474;2022-10-03T13:09:15;710.63;;;655.97;;
15788;SDS011;59075;50.670;6.474;2022-10-03T13:11:53;717.53;;;662.63;;
15788;SDS011;59075;50.670;6.474;2022-10-03T13:14:27;713.60;;;658.93;;
15788;SDS011;59075;50.670;6.474;2022-10-03T13:16:59;718.17;;;663.20;;
15788;SDS011;59075;50.670;6.474;2022-10-03T13:19:36;702.00;;;647.40;;
15788;SDS011;59075;50.670;6.474;2022-10-03T13:22:12;707.67;;;653.20;;
15788;SDS011;59075;50.670;6.474;2022-10-03T13:24:54;714.90;;;660.13;;
15788;SDS011;59075;50.670;6.474;2022-10-03T13:27:37;717.23;;;662.37;;
15788;SDS011;59075;50.670;6.474;2022-10-03T13:30:12;724.93;;;669.70;;
15788;SDS011;59075;50.670;6.474;2022-10-03T13:32:45;710.97;;;656.57;;
15788;SDS011;59075;50.670;6.474;2022-10-03T13:35:18;701.47;;;647.03;;
15788;SDS011;59075;50.670;6.474;2022-10-03T13:41:16;719.70;;;664.10;;
15788;SDS011;59075;50.670;6.474;2022-10-03T13:43:54;713.97;;;657.87;;
15788;SDS011;59075;50.670;6.474;2022-10-03T13:46:25;706.03;;;650.37;;
15788;SDS011;59075;50.670;6.474;2022-10-03T13:48:57;715.90;;;660.50;;
15788;SDS011;59075;50.670;6.474;2022-10-03T13:51:30;714.33;;;659.33;;
15788;SDS011;59075;50.670;6.474;2022-10-03T13:54:05;709.57;;;654.47;;
15788;SDS011;59075;50.670;6.474;2022-10-03T13:56:42;721.37;;;666.13;;
15788;SDS011;59075;50.670;6.474;2022-10-03T13:59:18;714.13;;;658.77;;
15788;SDS011;59075;50.670;6.474;2022-10-03T14:02:02;720.90;;;665.60;;
15788;SDS011;59075;50.670;6.474;2022-10-03T14:04:46;712.60;;;657.60;;
15788;SDS011;59075;50.670;6.474;2022-10-03T14:07:23;709.97;;;655.00;;
15788;SDS011;59075;50.670;6.474;2022-10-03T14:12:59;714.67;;;659.47;;
15788;SDS011;59075;50.670;6.474;2022-10-03T14:15:39;716.83;;;661.77;;
15788;SDS011;59075;50.670;6.474;2022-10-03T14:18:18;703.27;;;648.57;;
15788;SDS011;59075;50.670;6.474;2022-10-03T14:24:02;709.00;;;654.17;;
15788;SDS011;59075;50.670;6.474;2022-10-03T14:26:38;717.20;;;662.13;;
15788;SDS011;59075;50.670;6.474;2022-10-03T14:29:12;719.57;;;664.57;;
15788;SDS011;59075;50.670;6.474;2022-10-03T14:31:47;706.70;;;652.10;;
15788;SDS011;59075;50.670;6.474;2022-10-03T14:34:21;720.47;;;665.20;;
15788;SDS011;59075;50.670;6.474;2022-10-03T14:37:01;727.97;;;672.53;;
15788;SDS011;59075;50.670;6.474;2022-10-03T14:39:39;708.00;;;653.43;;
15788;SDS011;59075;50.670;6.474;2022-10-03T14:42:36;721.93;;;666.90;;
15788;SDS011;59075;50.670;6.474;2022-10-03T14:45:20;708.00;;;653.60;;
15788;SDS011;59075;50.670;6.474;2022-10-03T14:47:50;707.27;;;652.47;;
15788;SDS011;59075;50.670;6.474;2022-10-03T14:50:21;718.30;;;663.37;;
15788;SDS011;59075;50.670;6.474;2022-10-03T14:52:54;732.33;;;676.47;;
15788;SDS011;59075;50.670;6.474;2022-10-03T14:55:27;714.60;;;659.83;;
15788;SDS011;59075;50.670;6.474;2022-10-03T14:57:58;712.97;;;658.00;;
15788;SDS011;59075;50.670;6.474;2022-10-03T15:00:36;721.63;;;666.47;;
15788;SDS011;59075;50.670;6.474;2022-10-03T15:05:55;714.27;;;659.30;;
15788;SDS011;59075;50.670;6.474;2022-10-03T15:08:28;719.70;;;664.63;;
15788;SDS011;59075;50.670;6.474;2022-10-03T15:10:59;721.60;;;666.70;;
15788;SDS011;59075;50.670;6.474;2022-10-03T15:13:27;721.53;;;666.50;;
15788;SDS011;59075;50.670;6.474;2022-10-03T15:16:02;720.27;;;665.43;;
15788;SDS011;59075;50.670;6.474;2022-10-03T15:18:29;721.93;;;667.00;;
15788;SDS011;59075;50.670;6.474;2022-10-03T15:20:56;722.90;;;667.93;;
15788;SDS011;59075;50.670;6.474;2022-10-03T15:23:25;717.63;;;662.53;;
15788;SDS011;59075;50.670;6.474;2022-10-03T15:26:00;715.87;;;660.83;;
15788;SDS011;59075;50.670;6.474;2022-10-03T15:28:29;707.77;;;653.13;;
15788;SDS011;59075;50.670;6.474;2022-10-03T15:31:07;708.90;;;654.43;;
15788;SDS011;59075;50.670;6.474;2022-10-03T15:33:38;715.97;;;661.13;;
15788;SDS011;59075;50.670;6.474;2022-10-03T15:36:09;723.70;;;667.90;;
15788;SDS011;59075;50.670;6.474;2022-10-03T15:38:40;716.87;;;662.13;;
15788;SDS011;59075;50.670;6.474;2022-10-03T15:41:11;712.50;;;657.93;;
15788;SDS011;59075;50.670;6.474;2022-10-03T15:43:42;722.77;;;667.77;;
15788;SDS011;59075;50.670;6.474;2022-10-03T15:46:21;724.47;;;668.37;;
15788;SDS011;59075;50.670;6.474;2022-10-03T15:48:54;725.97;;;670.70;;
15788;SDS011;59075;50.670;6.474;2022-10-03T15:51:24;722.03;;;667.13;;
15788;SDS011;59075;50.670;6.474;2022-10-03T15:53:54;722.63;;;667.50;;
15788;SDS011;59075;50.670;6.474;2022-10-03T15:56:24;716.00;;;660.70;;
15788;SDS011;59075;50.670;6.474;2022-10-03T15:58:56;719.40;;;664.53;;
15788;SDS011;59075;50.670;6.474;2022-10-03T16:01:27;717.40;;;662.53;;
15788;SDS011;59075;50.670;6.474;2022-10-03T16:03:56;718.80;;;663.30;;
15788;SDS011;59075;50.670;6.474;2022-10-03T16:06:27;701.50;;;647.07;;
15788;SDS011;59075;50.670;6.474;2022-10-03T16:08:58;708.27;;;653.70;;
15788;SDS011;59075;50.670;6.474;2022-10-03T16:11:31;720.50;;;665.50;;
15788;SDS011;59075;50.670;6.474;2022-10-03T16:14:13;713.73;;;658.80;;
15788;SDS011;59075;50.670;6.474;2022-10-03T16:16:46;712.63;;;657.87;;
15788;SDS011;59075;50.670;6.474;2022-10-03T16:19:21;709.20;;;654.60;;
15788;SDS011;59075;50.670;6.474;2022-10-03T16:22:12;722.63;;;667.53;;
15788;SDS011;59075;50.670;6.474;2022-10-03T16:24:47;711.60;;;657.03;;
15788;SDS011;59075;50.670;6.474;2022-10-03T16:27:21;713.00;;;658.17;;
15788;SDS011;59075;50.670;6.474;2022-10-03T16:29:51;712.17;;;657.27;;
15788;SDS011;59075;50.670;6.474;2022-10-03T16:32:26;717.20;;;662.17;;
15788;SDS011;59075;50.670;6.474;2022-10-03T16:34:56;711.23;;;656.57;;
15788;SDS011;59075;50.670;6.474;2022-10-03T16:37:26;701.57;;;647.20;;
15788;SDS011;59075;50.670;6.474;2022-10-03T16:39:58;708.33;;;653.83;;
15788;SDS011;59075;50.670;6.474;2022-10-03T16:42:28;719.70;;;664.70;;
15788;SDS011;59075;50.670;6.474;2022-10-03T16:45:04;705.80;;;651.60;;
15788;SDS011;59075;50.670;6.474;2022-10-03T16:47:34;710.87;;;656.17;;
15788;SDS011;59075;50.670;6.474;2022-10-03T16:50:02;702.23;;;647.97;;
15788;SDS011;59075;50.670;6.474;2022-10-03T16:52:48;710.63;;;655.80;;
15788;SDS011;59075;50.670;6.474;2022-10-03T16:55:20;718.57;;;663.53;;
15788;SDS011;59075;50.670;6.474;2022-10-03T16:57:51;715.97;;;661.37;;
15788;SDS011;59075;50.670;6.474;2022-10-03T17:00:22;716.40;;;661.67;;
15788;SDS011;59075;50.670;6.474;2022-10-03T17:02:55;713.43;;;659.00;;
15788;SDS011;59075;50.670;6.474;2022-10-03T17:05:22;707.40;;;652.90;;
15788;SDS011;59075;50.670;6.474;2022-10-03T17:07:49;709.70;;;654.97;;
15788;SDS011;59075;50.670;6.474;2022-10-03T17:10:25;715.70;;;660.77;;
15788;SDS011;59075;50.670;6.474;2022-10-03T17:12:57;713.63;;;659.00;;
15788;SDS011;59075;50.670;6.474;2022-10-03T17:15:26;710.47;;;656.00;;
15788;SDS011;59075;50.670;6.474;2022-10-03T17:18:02;700.83;;;646.63;;
15788;SDS011;59075;50.670;6.474;2022-10-03T17:20:40;703.30;;;649.07;;
15788;SDS011;59075;50.670;6.474;2022-10-03T17:23:14;709.63;;;655.20;;
15788;SDS011;59075;50.670;6.474;2022-10-03T17:25:49;703.60;;;649.23;;
15788;SDS011;59075;50.670;6.474;2022-10-03T17:28:31;710.43;;;655.80;;
15788;SDS011;59075;50.670;6.474;2022-10-03T17:31:04;702.47;;;648.23;;
15788;SDS011;59075;50.670;6.474;2022-10-03T17:33:40;692.13;;;638.13;;
15788;SDS011;59075;50.670;6.474;2022-10-03T17:39:03;710.20;;;655.47;;
15788;SDS011;59075;50.670;6.474;2022-10-03T17:41:34;689.40;;;635.43;;
15788;SDS011;59075;50.670;6.474;2022-10-03T17:44:12;701.70;;;647.50;;
15788;SDS011;59075;50.670;6.474;2022-10-03T17:46:45;696.97;;;642.87;;
15788;SDS011;59075;50.670;6.474;2022-10-03T17:49:24;700.10;;;646.10;;
15788;SDS011;59075;50.670;6.474;2022-10-03T17:52:04;702.87;;;648.40;;
15788;SDS011;59075;50.670;6.474;2022-10-03T17:54:40;698.47;;;644.07;;
15788;SDS011;59075;50.670;6.474;2022-10-03T17:57:12;708.70;;;654.43;;
15788;SDS011;59075;50.670;6.474;2022-10-03T17:59:43;696.50;;;642.27;;
15788;SDS011;59075;50.670;6.474;2022-10-03T18:02:19;700.27;;;645.73;;
15788;SDS011;59075;50.670;6.474;2022-10-03T18:04:55;691.87;;;638.13;;
15788;SDS011;59075;50.670;6.474;2022-10-03T18:07:33;714.10;;;659.47;;
15788;SDS011;59075;50.670;6.474;2022-10-03T18:10:01;715.27;;;660.53;;
15788;SDS011;59075;50.670;6.474;2022-10-03T18:12:31;704.03;;;649.57;;
15788;SDS011;59075;50.670;6.474;2022-10-03T18:18:18;695.37;;;641.13;;
15788;SDS011;59075;50.670;6.474;2022-10-03T18:21:04;692.40;;;638.33;;
15788;SDS011;59075;50.670;6.474;2022-10-03T18:23:43;699.43;;;645.17;;
15788;SDS011;59075;50.670;6.474;2022-10-03T18:26:20;713.77;;;657.40;;
15788;SDS011;59075;50.670;6.474;2022-10-03T18:28:57;699.30;;;644.93;;
15788;SDS011;59075;50.670;6.474;2022-10-03T18:31:34;700.80;;;646.43;;
15788;SDS011;59075;50.670;6.474;2022-10-03T18:34:05;714.80;;;659.87;;
15788;SDS011;59075;50.670;6.474;2022-10-03T18:36:36;707.17;;;652.53;;
15788;SDS011;59075;50.670;6.474;2022-10-03T18:39:10;701.00;;;646.43;;
15788;SDS011;59075;50.670;6.474;2022-10-03T18:41:42;704.87;;;650.37;;
15788;SDS011;59075;50.670;6.474;2022-10-03T18:44:11;708.57;;;653.57;;
15788;SDS011;59075;50.670;6.474;2022-10-03T18:46:41;685.57;;;631.60;;
15788;SDS011;59075;50.670;6.474;2022-10-03T18:49:12;689.57;;;635.67;;
15788;SDS011;59075;50.670;6.474;2022-10-03T18:51:44;689.13;;;635.13;;
15788;SDS011;59075;50.670;6.474;2022-10-03T18:54:19;692.77;;;638.60;;
15788;SDS011;59075;50.670;6.474;2022-10-03T18:57:01;702.97;;;648.23;;
15788;SDS011;59075;50.670;6.474;2022-10-03T18:59:33;694.00;;;639.50;;
15788;SDS011;59075;50.670;6.474;2022-10-03T19:02:12;695.47;;;641.37;;
15788;SDS011;59075;50.670;6.474;2022-10-03T19:04:45;679.13;;;625.60;;
15788;SDS011;59075;50.670;6.474;2022-10-03T19:07:19;695.87;;;641.70;;
15788;SDS011;59075;50.670;6.474;2022-10-03T19:10:08;689.47;;;635.63;;
15788;SDS011;59075;50.670;6.474;2022-10-03T19:12:58;681.10;;;627.37;;
15788;SDS011;59075;50.670;6.474;2022-10-03T19:15:34;681.63;;;628.03;;
15788;SDS011;59075;50.670;6.474;2022-10-03T19:18:10;700.40;;;646.13;;
15788;SDS011;59075;50.670;6.474;2022-10-03T19:20:45;703.53;;;649.13;;
15788;SDS011;59075;50.670;6.474;2022-10-03T19:23:17;699.03;;;644.73;;
15788;SDS011;59075;50.670;6.474;2022-10-03T19:25:50;691.13;;;637.00;;
15788;SDS011;59075;50.670;6.474;2022-10-03T19:28:21;696.30;;;642.30;;
15788;SDS011;59075;50.670;6.474;2022-10-03T19:30:55;691.27;;;637.27;;
15788;SDS011;59075;50.670;6.474;2022-10-03T19:33:28;688.83;;;634.80;;
15788;SDS011;59075;50.670;6.474;2022-10-03T19:35:57;698.13;;;643.93;;
15788;SDS011;59075;50.670;6.474;2022-10-03T19:38:27;686.90;;;632.97;;
15788;SDS011;59075;50.670;6.474;2022-10-03T19:40:58;697.00;;;642.77;;
15788;SDS011;59075;50.670;6.474;2022-10-03T19:43:33;680.37;;;626.87;;
15788;SDS011;59075;50.670;6.474;2022-10-03T19:46:09;696.70;;;642.30;;
15788;SDS011;59075;50.670;6.474;2022-10-03T19:48:42;701.00;;;646.67;;
15788;SDS011;59075;50.670;6.474;2022-10-03T19:51:13;697.73;;;643.43;;
15788;SDS011;59075;50.670;6.474;2022-10-03T19:53:43;706.33;;;651.70;;
15788;SDS011;59075;50.670;6.474;2022-10-03T19:56:14;704.80;;;649.53;;
15788;SDS011;59075;50.670;6.474;2022-10-03T19:58:44;675.80;;;622.13;;
15788;SDS011;59075;50.670;6.474;2022-10-03T20:01:12;690.30;;;636.17;;
15788;SDS011;59075;50.670;6.474;2022-10-03T20:03:42;681.70;;;627.87;;
15788;SDS011;59075;50.670;6.474;2022-10-03T20:06:14;704.83;;;649.47;;
15788;SDS011;59075;50.670;6.474;2022-10-03T20:08:45;691.83;;;637.80;;
15788;SDS011;59075;50.670;6.474;2022-10-03T20:11:20;692.27;;;637.93;;
15788;SDS011;59075;50.670;6.474;2022-10-03T20:14:00;698.80;;;644.43;;
15788;SDS011;59075;50.670;6.474;2022-10-03T20:16:28;695.87;;;641.53;;
15788;SDS011;59075;50.670;6.474;2022-10-03T20:19:02;697.43;;;643.33;;
15788;SDS011;59075;50.670;6.474;2022-10-03T20:21:32;690.50;;;636.43;;
15788;SDS011;59075;50.670;6.474;2022-10-03T20:24:06;692.00;;;637.87;;
15788;SDS011;59075;50.670;6.474;2022-10-03T20:26:37;693.97;;;639.63;;
15788;SDS011;59075;50.670;6.474;2022-10-03T20:29:16;689.77;;;635.70;;
15788;SDS011;59075;50.670;6.474;2022-10-03T20:31:48;683.77;;;629.77;;
15788;SDS011;59075;50.670;6.474;2022-10-03T20:34:18;682.93;;;629.03;;
15788;SDS011;59075;50.670;6.474;2022-10-03T20:36:48;684.27;;;630.13;;
15788;SDS011;59075;50.670;6.474;2022-10-03T20:39:22;695.60;;;641.17;;
15788;SDS011;59075;50.670;6.474;2022-10-03T20:41:54;692.57;;;638.47;;
15788;SDS011;59075;50.670;6.474;2022-10-03T20:47:39;681.50;;;627.50;;
15788;SDS011;59075;50.670;6.474;2022-10-03T20:50:15;679.50;;;625.60;;
15788;SDS011;59075;50.670;6.474;2022-10-03T20:52:48;671.23;;;617.50;;
15788;SDS011;59075;50.670;6.474;2022-10-03T20:55:19;686.77;;;632.67;;
15788;SDS011;59075;50.670;6.474;2022-10-03T20:57:51;683.43;;;629.53;;
